CST,Max TemperatureF,Mean TemperatureF,Min TemperatureF,Max Dew PointF,MeanDew PointF,Min DewpointF,Max Humidity, Mean Humidity, Min Humidity, Max Sea Level PressureIn, Mean Sea Level PressureIn, Min Sea Level PressureIn, Max VisibilityMiles, Mean VisibilityMiles, Min VisibilityMiles, Max Wind SpeedMPH, Mean Wind SpeedMPH, Max Gust SpeedMPH,PrecipitationIn, CloudCover, Events, WindDirDegrees
2013-2-1,32,23,14,28,14,7,92,74,55,30.42,30.29,30.05,10,8,0,28,7,36,0.01,4,Fog-Snow,295
2013-2-2,36,28,19,31,24,11,88,78,67,30.33,30.17,30.03,10,6,0,9,3,17,0.09,7,Fog-Snow,234
2013-2-3,40,32,24,31,27,21,92,76,59,30.16,30.05,29.97,10,8,0,22,8,31,0.04,6,Fog-Snow,281
2013-2-4,49,36,22,26,23,20,96,67,38,30.13,30.03,29.94,10,9,6,13,3,20,0.00,3,,188
2013-2-5,53,45,37,39,35,27,93,72,48,30.06,29.98,29.92,10,9,4,9,4,,0.00,4,,252
2013-2-6,55,42,28,33,28,23,92,60,29,30.20,30.16,30.07,10,10,10,10,1,17,0.00,0,,304
2013-2-7,55,47,38,44,37,27,96,69,42,30.12,30.02,29.92,10,8,2,13,2,20,0.05,6,Rain,133
2013-2-8,47,41,35,45,36,26,96,83,70,30.28,30.07,29.88,10,8,2,20,8,25,0.12,8,Rain,324
2013-2-9,52,40,27,27,21,12,85,53,21,30.35,30.28,30.19,10,10,8,13,7,17,T,2,Snow,90
2013-2-10,54,50,45,50,38,23,93,66,38,30.19,30.05,29.95,10,8,2,22,10,38,0.50,6,Rain,170
2013-2-11,54,49,43,52,39,25,89,64,39,30.15,30.05,29.96,10,10,4,16,9,23,0.14,3,Rain,246
2013-2-12,51,42,33,37,29,24,76,56,36,30.17,30.04,29.81,10,10,10,12,3,15,0.00,3,Rain,67
2013-2-13,44,40,35,41,35,30,96,83,70,30.01,29.80,29.68,10,7,1,18,7,29,0.31,8,Rain,289
2013-2-14,52,42,32,34,31,28,89,65,41,30.06,30.02,29.98,10,10,10,14,4,21,0.00,4,,225
2013-2-15,46,38,30,37,31,21,82,71,59,30.12,30.07,30.02,10,10,10,16,5,22,0.02,5,Rain,280
2013-2-16,32,27,21,20,14,6,81,62,42,30.16,30.08,30.03,10,9,2,20,9,25,T,3,Snow,323
2013-2-17,38,26,13,15,10,8,88,59,29,30.28,30.23,30.17,10,10,10,16,4,23,0.00,0,,285
2013-2-18,54,42,30,33,22,13,47,41,35,30.27,30.12,29.91,10,10,5,26,10,44,0.09,2,Rain,179
2013-2-19,46,38,30,39,28,14,85,59,32,30.19,30.02,29.90,10,9,2,22,11,36,0.12,5,Rain,259
2013-2-20,34,27,20,15,13,9,73,54,35,30.27,30.22,30.18,10,10,10,12,6,15,0.00,0,,347
2013-2-21,50,36,22,40,21,11,92,57,21,30.23,30.11,29.94,10,9,4,21,6,36,0.61,3,Rain,91
2013-2-22,49,46,43,45,43,40,100,90,80,30.06,30.00,29.93,10,9,5,16,8,29,T,8,,184
2013-2-23,57,45,33,44,37,27,100,72,43,30.00,29.93,29.86,10,9,7,12,4,14,0.00,3,,298
2013-2-24,51,40,29,26,21,17,85,56,26,30.09,30.04,29.94,10,10,10,13,5,17,0.00,0,,14
2013-2-25,57,44,30,42,28,21,74,53,32,30.03,29.90,29.69,10,10,10,18,7,29,0.00,3,,110
2013-2-26,50,44,37,45,39,30,93,82,67,29.70,29.55,29.46,10,9,2,24,13,44,0.21,8,Rain,201
2013-2-27,39,36,33,34,30,28,93,81,67,29.86,29.81,29.72,10,9,3,12,8,25,0.03,8,Snow,258
2013-2-28,33,30,28,29,26,22,89,79,66,30.01,29.91,29.80,10,7,2,14,8,23,0.00,8,Snow,286